createdAt,value
2023-03-20T00:01:38.115Z,5.47
2023-03-20T00:04:11.138Z,4.67
2023-03-20T00:06:46.595Z,5.08
2023-03-20T00:09:17.963Z,5.05
2023-03-20T00:11:51.548Z,5.58
2023-03-20T00:14:24.542Z,6.00
2023-03-20T00:16:55.290Z,7.33
2023-03-20T00:19:29.583Z,7.87
2023-03-20T00:22:02.393Z,5.30
2023-03-20T00:24:33.025Z,5.85
2023-03-20T00:27:07.008Z,6.70
2023-03-20T00:29:37.745Z,6.60
2023-03-20T00:32:13.179Z,7.37
2023-03-20T00:34:44.128Z,6.50
2023-03-20T00:37:16.395Z,7.03
2023-03-20T00:39:48.597Z,7.30
2023-03-20T00:42:24.972Z,7.35
2023-03-20T00:44:59.688Z,7.08
2023-03-20T00:47:30.904Z,7.30
2023-03-20T00:50:08.011Z,7.17
2023-03-20T00:52:40.618Z,10.63
2023-03-20T00:55:14.670Z,7.85
2023-03-20T00:57:51.027Z,7.47
2023-03-20T01:00:31.830Z,10.45
2023-03-20T01:03:05.921Z,8.93
2023-03-20T01:05:37.074Z,8.95
2023-03-20T01:08:16.984Z,8.85
2023-03-20T01:10:50.550Z,8.85
2023-03-20T01:13:27.830Z,8.50
2023-03-20T01:16:01.105Z,9.00
2023-03-20T01:18:33.356Z,9.55
2023-03-20T01:21:06.220Z,10.82
2023-03-20T01:23:37.868Z,10.08
2023-03-20T01:26:23.855Z,9.28
2023-03-20T01:28:56.090Z,9.05
2023-03-20T01:31:27.403Z,8.90
2023-03-20T01:33:59.126Z,10.90
2023-03-20T01:36:31.183Z,9.58
2023-03-20T01:39:01.896Z,8.25
2023-03-20T01:41:33.516Z,9.30
2023-03-20T01:44:07.289Z,9.00
2023-03-20T01:46:40.935Z,10.08
2023-03-20T01:49:24.160Z,9.40
2023-03-20T01:51:59.289Z,9.00
2023-03-20T01:54:40.068Z,11.57
2023-03-20T01:57:26.058Z,9.98
2023-03-20T02:00:06.224Z,7.28
2023-03-20T02:02:41.118Z,10.55
2023-03-20T02:05:17.724Z,8.45
2023-03-20T02:07:53.768Z,9.20
2023-03-20T02:10:24.773Z,9.78
2023-03-20T02:12:56.480Z,8.83
2023-03-20T02:15:28.338Z,7.90
2023-03-20T02:17:59.926Z,9.90
2023-03-20T02:20:36.166Z,8.20
2023-03-20T02:23:17.703Z,7.53
2023-03-20T02:26:13.970Z,8.18
2023-03-20T02:29:03.854Z,8.33
2023-03-20T02:31:57.434Z,8.35
2023-03-20T02:34:48.925Z,7.90
2023-03-20T02:37:33.845Z,8.30
2023-03-20T02:40:16.941Z,7.42
2023-03-20T02:43:23.997Z,8.20
2023-03-20T02:46:09.515Z,8.48
2023-03-20T02:48:48.813Z,8.98
2023-03-20T02:51:42.231Z,7.72
2023-03-20T02:54:26.111Z,9.80
2023-03-20T02:57:20.670Z,8.88
2023-03-20T02:59:57.849Z,8.18
2023-03-20T03:02:41.688Z,8.20
2023-03-20T03:05:16.685Z,8.85
2023-03-20T03:07:49.927Z,7.85
2023-03-20T03:10:24.936Z,8.25
2023-03-20T03:12:58.460Z,8.23
2023-03-20T03:15:39.165Z,8.53
2023-03-20T03:18:15.265Z,9.53
2023-03-20T03:20:49.670Z,8.65
2023-03-20T03:23:44.069Z,9.05
2023-03-20T03:26:18.711Z,9.93
2023-03-20T03:28:53.561Z,8.70
2023-03-20T03:31:25.487Z,8.85
2023-03-20T03:33:58.364Z,9.65
2023-03-20T03:36:32.129Z,9.93
2023-03-20T03:39:27.720Z,9.48
2023-03-20T03:42:15.769Z,10.78
2023-03-20T03:45:17.349Z,10.03
2023-03-20T03:47:54.916Z,10.88
2023-03-20T03:50:37.020Z,9.15
2023-03-20T03:53:12.278Z,9.85
2023-03-20T03:55:50.448Z,9.43
2023-03-20T03:58:33.991Z,10.05
2023-03-20T04:01:08.107Z,11.20
2023-03-20T04:03:45.926Z,10.95
2023-03-20T04:06:18.730Z,9.60
2023-03-20T04:08:49.339Z,10.70
2023-03-20T04:11:24.706Z,9.85
2023-03-20T04:13:55.072Z,9.65
2023-03-20T04:16:28.021Z,10.25
2023-03-20T04:18:59.604Z,10.40
2023-03-20T04:21:31.748Z,9.25
2023-03-20T04:24:03.788Z,10.72
2023-03-20T04:26:34.520Z,10.82
2023-03-20T04:29:06.670Z,9.13
2023-03-20T04:31:39.264Z,9.48
2023-03-20T04:34:12.099Z,10.05
2023-03-20T04:36:42.690Z,9.55
2023-03-20T04:39:14.793Z,10.60
2023-03-20T04:41:48.532Z,10.35
2023-03-20T04:44:20.314Z,10.50
2023-03-20T04:46:51.186Z,11.00
2023-03-20T04:49:21.661Z,10.93
2023-03-20T04:51:54.158Z,10.38
2023-03-20T04:54:28.636Z,11.00
2023-03-20T04:57:00.136Z,12.68
2023-03-20T04:59:35.572Z,10.28
2023-03-20T05:02:06.180Z,11.73
2023-03-20T05:04:36.848Z,11.08
2023-03-20T05:07:07.602Z,10.45
2023-03-20T05:09:42.362Z,11.93
2023-03-20T05:12:12.740Z,11.60
2023-03-20T05:14:43.405Z,11.53
2023-03-20T05:17:14.277Z,11.83
2023-03-20T05:19:44.827Z,11.90
2023-03-20T05:22:15.996Z,13.13
2023-03-20T05:24:48.493Z,13.98
2023-03-20T05:27:20.230Z,13.90
2023-03-20T05:29:52.519Z,12.88
2023-03-20T05:32:23.080Z,13.30
2023-03-20T05:34:53.577Z,13.75
2023-03-20T05:37:24.278Z,14.35
2023-03-20T05:39:57.102Z,17.32
2023-03-20T05:42:29.095Z,15.17
2023-03-20T05:45:02.748Z,17.80
2023-03-20T05:47:37.350Z,15.13
2023-03-20T05:50:09.953Z,17.52
2023-03-20T05:52:42.741Z,17.75
2023-03-20T05:55:13.796Z,15.63
2023-03-20T05:57:45.734Z,16.95
2023-03-20T06:00:18.386Z,18.62
2023-03-20T06:02:50.446Z,18.62
2023-03-20T06:05:22.179Z,18.32
2023-03-20T06:07:54.111Z,19.15
2023-03-20T06:10:24.649Z,20.07
2023-03-20T06:12:56.696Z,20.72
2023-03-20T06:15:30.213Z,19.95
2023-03-20T06:18:02.980Z,21.25
2023-03-20T06:20:33.622Z,24.10
2023-03-20T06:23:10.709Z,23.55
2023-03-20T06:25:43.116Z,24.23
2023-03-20T06:28:15.666Z,25.32
2023-03-20T06:30:47.582Z,26.23
2023-03-20T06:33:19.932Z,28.67
2023-03-20T06:35:54.062Z,32.97
2023-03-20T06:38:27.668Z,30.17
2023-03-20T06:40:59.530Z,40.43
2023-03-20T06:43:30.736Z,34.40
2023-03-20T06:46:07.681Z,35.68
2023-03-20T06:48:38.237Z,36.17
2023-03-20T06:51:09.104Z,35.48
2023-03-20T06:53:44.401Z,39.67
2023-03-20T06:56:14.985Z,43.23
2023-03-20T06:58:46.642Z,38.07
2023-03-20T07:01:19.901Z,41.57
2023-03-20T07:03:53.538Z,42.55
2023-03-20T07:06:24.621Z,41.18
2023-03-20T07:08:56.761Z,40.43
2023-03-20T07:11:30.376Z,40.80
2023-03-20T07:14:02.474Z,40.13
2023-03-20T07:16:33.769Z,37.25
2023-03-20T07:19:06.307Z,39.48
2023-03-20T07:21:54.090Z,39.33
2023-03-20T07:24:24.723Z,34.43
2023-03-20T07:26:57.801Z,41.65
2023-03-20T07:29:29.330Z,38.60
2023-03-20T07:32:02.242Z,35.25
2023-03-20T07:34:32.815Z,40.83
2023-03-20T07:37:11.702Z,44.30
2023-03-20T07:39:43.090Z,38.90
2023-03-20T07:42:15.178Z,38.25
2023-03-20T07:44:48.298Z,36.38
2023-03-20T07:47:20.946Z,37.43
2023-03-20T07:49:53.183Z,38.15
2023-03-20T07:52:26.770Z,37.58
2023-03-20T07:55:00.861Z,37.90
2023-03-20T07:57:34.175Z,36.53
2023-03-20T08:00:09.961Z,32.33
2023-03-20T08:02:44.216Z,31.75
2023-03-20T08:05:19.819Z,33.17
2023-03-20T08:07:55.544Z,33.25
2023-03-20T08:10:27.970Z,35.15
2023-03-20T08:12:58.488Z,33.18
2023-03-20T08:15:31.936Z,32.93
2023-03-20T08:18:06.106Z,32.28
2023-03-20T08:20:36.733Z,29.37
2023-03-20T08:23:08.592Z,31.37
2023-03-20T08:25:40.961Z,33.20
2023-03-20T08:28:14.243Z,33.48
2023-03-20T08:30:46.705Z,30.92
2023-03-20T08:33:19.649Z,32.60
2023-03-20T08:35:58.281Z,31.40
2023-03-20T08:38:30.396Z,33.35
2023-03-20T08:41:02.769Z,29.10
2023-03-20T08:43:38.015Z,28.30
2023-03-20T08:46:10.108Z,28.83
2023-03-20T08:48:43.293Z,29.95
2023-03-20T08:51:18.381Z,27.70
2023-03-20T08:53:50.459Z,27.45
2023-03-20T08:56:21.701Z,24.30
2023-03-20T08:58:56.197Z,24.82
2023-03-20T09:01:41.766Z,24.07
2023-03-20T09:04:02.517Z,23.52
2023-03-20T09:06:34.378Z,22.30
2023-03-20T09:09:06.781Z,24.45
2023-03-20T09:11:40.593Z,21.45
2023-03-20T09:14:12.113Z,21.65
2023-03-20T09:16:44.415Z,26.37
2023-03-20T09:19:20.017Z,21.82
2023-03-20T09:21:54.214Z,22.30
2023-03-20T09:24:26.495Z,20.25
2023-03-20T09:27:03.687Z,19.10
2023-03-20T09:29:36.520Z,21.33
2023-03-20T09:32:09.908Z,23.65
2023-03-20T09:34:41.960Z,20.25
2023-03-20T09:37:12.480Z,21.23
2023-03-20T09:39:43.562Z,21.95
2023-03-20T09:42:46.225Z,19.82
2023-03-20T09:45:40.318Z,19.17
2023-03-20T09:48:20.293Z,18.40
2023-03-20T09:50:59.959Z,17.80
2023-03-20T09:53:39.351Z,19.32
2023-03-20T09:56:14.096Z,18.05
2023-03-20T09:58:47.616Z,18.05
2023-03-20T10:01:22.785Z,14.50
2023-03-20T10:04:04.487Z,18.05
2023-03-20T10:06:36.764Z,14.78
2023-03-20T10:09:25.876Z,14.98
2023-03-20T10:12:23.026Z,14.93
2023-03-20T10:15:21.083Z,15.68
2023-03-20T10:18:12.521Z,12.93
2023-03-20T10:21:06.886Z,13.40
2023-03-20T10:23:42.725Z,13.88
2023-03-20T10:26:19.275Z,11.68
2023-03-20T10:29:00.968Z,15.32
2023-03-20T10:31:52.457Z,12.47
2023-03-20T10:34:35.188Z,14.15
2023-03-20T10:37:20.651Z,13.45
2023-03-20T10:40:29.607Z,13.55
2023-03-20T10:43:08.923Z,11.88
2023-03-20T10:45:47.479Z,11.35
2023-03-20T10:48:31.571Z,11.22
2023-03-20T10:51:04.730Z,13.78
2023-03-20T10:53:39.488Z,13.85
2023-03-20T10:56:17.159Z,11.70
2023-03-20T10:58:53.536Z,11.12
2023-03-20T11:01:25.144Z,15.53
2023-03-20T11:03:56.384Z,10.78
2023-03-20T11:06:29.970Z,13.05
2023-03-20T11:09:06.288Z,10.58
2023-03-20T11:11:41.523Z,9.40
2023-03-20T11:14:21.127Z,10.30
2023-03-20T11:16:54.301Z,11.78
2023-03-20T11:19:28.333Z,10.48
2023-03-20T11:22:01.524Z,10.20
2023-03-20T11:24:47.222Z,10.00
2023-03-20T11:27:20.583Z,11.00
2023-03-20T11:29:52.552Z,11.22
2023-03-20T11:32:33.069Z,10.58
2023-03-20T11:35:26.165Z,12.65
2023-03-20T11:37:59.515Z,11.48
2023-03-20T11:40:34.869Z,12.73
2023-03-20T11:43:10.774Z,11.85
2023-03-20T11:45:46.627Z,10.03
2023-03-20T11:48:23.426Z,12.73
2023-03-20T11:51:06.506Z,10.43
2023-03-20T11:53:47.995Z,10.82
2023-03-20T11:56:27.201Z,12.63
2023-03-20T11:59:06.721Z,10.80
2023-03-20T12:01:53.931Z,11.50
2023-03-20T12:04:40.567Z,12.93
2023-03-20T12:07:21.441Z,11.63
2023-03-20T12:10:07.602Z,11.63
2023-03-20T12:12:48.315Z,11.53
2023-03-20T12:15:25.925Z,11.73
2023-03-20T12:18:02.537Z,11.97
2023-03-20T12:20:43.233Z,10.10
2023-03-20T12:23:28.925Z,11.88
2023-03-20T12:26:03.085Z,12.85
2023-03-20T12:28:49.081Z,12.80
2023-03-20T12:31:22.630Z,12.33
2023-03-20T12:34:04.826Z,13.13
2023-03-20T12:36:42.167Z,12.80
2023-03-20T12:39:25.266Z,11.97
2023-03-20T12:42:23.265Z,12.68
2023-03-20T12:45:11.798Z,13.88
2023-03-20T12:47:58.834Z,12.60
2023-03-20T12:50:40.058Z,15.88
2023-03-20T12:53:16.319Z,13.08
2023-03-20T12:55:59.516Z,12.37
2023-03-20T12:58:49.771Z,13.38
2023-03-20T13:01:24.827Z,14.73
2023-03-20T13:04:02.479Z,12.65
2023-03-20T13:06:41.816Z,12.58
2023-03-20T13:09:37.489Z,14.47
2023-03-20T13:12:17.157Z,16.87
2023-03-20T13:15:14.955Z,15.23
2023-03-20T13:17:56.698Z,17.02
2023-03-20T13:20:32.585Z,15.72
2023-03-20T13:23:25.498Z,13.38
2023-03-20T13:26:30.673Z,15.85
2023-03-20T13:29:23.509Z,15.58
2023-03-20T13:32:04.779Z,16.30
2023-03-20T13:34:59.682Z,16.12
2023-03-20T13:37:49.960Z,15.20
2023-03-20T13:40:29.558Z,14.33
2023-03-20T13:43:17.741Z,18.00
2023-03-20T13:45:54.973Z,17.75
2023-03-20T13:48:38.144Z,15.90
2023-03-20T13:51:24.167Z,15.58
2023-03-20T13:54:15.276Z,18.17
2023-03-20T13:57:26.566Z,17.15
2023-03-20T14:00:27.789Z,18.82
2023-03-20T14:03:15.483Z,17.77
2023-03-20T14:05:57.449Z,16.65
2023-03-20T14:08:36.998Z,18.45
2023-03-20T14:11:15.871Z,16.48
2023-03-20T14:13:56.818Z,16.55
2023-03-20T14:16:31.268Z,18.98
2023-03-20T14:19:17.992Z,18.10
2023-03-20T14:21:53.002Z,18.00
2023-03-20T14:24:32.744Z,19.60
2023-03-20T14:27:04.237Z,20.68
2023-03-20T14:29:39.866Z,19.02
2023-03-20T14:32:20.965Z,17.77
2023-03-20T14:34:55.059Z,17.12
2023-03-20T14:37:43.661Z,19.70
2023-03-20T14:40:29.498Z,19.90
2023-03-20T14:43:23.459Z,17.73
2023-03-20T14:46:04.453Z,18.77
2023-03-20T14:48:39.178Z,18.60
2023-03-20T14:51:25.443Z,20.52
2023-03-20T14:54:20.814Z,21.52
2023-03-20T14:56:53.782Z,18.87
2023-03-20T14:59:26.709Z,17.95
2023-03-20T15:02:05.380Z,20.27
2023-03-20T15:04:39.332Z,21.55
2023-03-20T15:07:18.079Z,20.02
2023-03-20T15:09:53.751Z,18.55
2023-03-20T15:12:33.498Z,20.60
2023-03-20T15:15:07.297Z,20.52
2023-03-20T15:17:44.201Z,20.62
2023-03-20T15:20:20.950Z,20.55
2023-03-20T15:22:57.056Z,20.15
2023-03-20T15:25:30.851Z,22.27
2023-03-20T15:28:04.045Z,18.52
2023-03-20T15:30:40.390Z,18.77
2023-03-20T15:33:22.877Z,20.00
2023-03-20T15:35:55.657Z,20.48
2023-03-20T15:38:29.246Z,20.20
2023-03-20T15:41:00.796Z,20.35
2023-03-20T15:43:35.970Z,19.27
2023-03-20T15:46:17.800Z,18.57
2023-03-20T15:48:43.479Z,20.48
2023-03-20T15:51:16.297Z,18.15
2023-03-20T15:53:50.060Z,18.27
2023-03-20T15:56:23.151Z,18.10
2023-03-20T15:58:56.356Z,19.52
2023-03-20T16:01:34.465Z,18.75
2023-03-20T16:04:07.112Z,18.20
2023-03-20T16:06:42.421Z,16.97
2023-03-20T16:09:16.125Z,17.75
2023-03-20T16:11:49.772Z,16.82
2023-03-20T16:14:31.132Z,19.57
2023-03-20T16:17:03.228Z,18.32
2023-03-20T16:19:35.798Z,17.30
2023-03-20T16:22:30.236Z,18.60
2023-03-20T16:25:09.263Z,16.95
2023-03-20T16:27:43.845Z,19.25
2023-03-20T16:30:20.769Z,16.17
2023-03-20T16:32:58.550Z,19.12
2023-03-20T16:35:40.756Z,18.95
2023-03-20T16:38:32.142Z,20.30
2023-03-20T16:41:22.312Z,20.15
2023-03-20T16:43:53.582Z,17.97
2023-03-20T16:46:29.971Z,17.57
2023-03-20T16:49:19.934Z,19.60
2023-03-20T16:51:51.021Z,17.95
2023-03-20T16:54:22.330Z,15.85
2023-03-20T16:56:55.214Z,18.50
2023-03-20T16:59:28.825Z,17.75
2023-03-20T17:02:05.579Z,20.50
2023-03-20T17:04:41.806Z,18.35
2023-03-20T17:07:19.321Z,16.48
2023-03-20T17:10:01.963Z,29.45
2023-03-20T17:12:35.486Z,19.12
2023-03-20T17:15:06.053Z,17.77
2023-03-20T17:17:39.966Z,19.65
2023-03-20T17:20:22.949Z,19.98
2023-03-20T17:22:54.880Z,18.25
2023-03-20T17:25:28.681Z,23.27
2023-03-20T17:28:00.791Z,21.15
2023-03-20T17:30:33.032Z,19.42
2023-03-20T17:33:05.524Z,20.08
2023-03-20T17:35:37.521Z,18.48
2023-03-20T17:38:14.635Z,22.17
2023-03-20T17:40:51.534Z,18.92
2023-03-20T17:43:22.663Z,21.05
2023-03-20T17:45:54.935Z,21.07
2023-03-20T17:48:27.086Z,19.32
2023-03-20T17:50:58.155Z,19.70
2023-03-20T17:53:30.941Z,21.68
2023-03-20T17:56:04.299Z,20.30
2023-03-20T17:58:36.473Z,18.02
2023-03-20T18:01:10.250Z,17.95
2023-03-20T18:03:43.574Z,22.80
2023-03-20T18:06:26.178Z,19.42
2023-03-20T18:08:59.994Z,19.15
2023-03-20T18:11:32.670Z,18.73
2023-03-20T18:14:03.218Z,18.23
2023-03-20T18:16:37.073Z,19.17
2023-03-20T18:19:07.745Z,17.55
2023-03-20T18:21:42.708Z,19.10
2023-03-20T18:24:14.479Z,16.93
2023-03-20T18:26:48.036Z,18.02
2023-03-20T18:29:21.726Z,18.75
2023-03-20T18:31:53.911Z,21.85
2023-03-20T18:34:27.947Z,20.65
2023-03-20T18:36:58.568Z,23.98
2023-03-20T18:39:31.945Z,21.20
2023-03-20T18:42:03.455Z,20.17
2023-03-20T18:44:35.358Z,18.42
2023-03-20T18:47:07.513Z,17.90
2023-03-20T18:49:39.695Z,17.40
2023-03-20T18:52:11.490Z,18.77
2023-03-20T18:54:44.186Z,20.70
2023-03-20T18:57:17.697Z,19.07
2023-03-20T18:59:51.741Z,18.40
2023-03-20T19:02:24.462Z,19.62
2023-03-20T19:04:59.115Z,20.32
2023-03-20T19:07:29.135Z,20.90
2023-03-20T19:09:59.769Z,18.70
2023-03-20T19:12:33.656Z,19.17
2023-03-20T19:15:05.121Z,19.70
2023-03-20T19:17:37.751Z,17.17
2023-03-20T19:20:11.507Z,19.77
2023-03-20T19:22:44.213Z,18.95
2023-03-20T19:25:16.896Z,17.62
2023-03-20T19:27:48.224Z,20.80
2023-03-20T19:30:27.692Z,19.73
2023-03-20T19:33:01.510Z,18.37
2023-03-20T19:35:58.726Z,19.50
2023-03-20T19:38:09.218Z,18.97
2023-03-20T19:40:43.539Z,20.85
2023-03-20T19:43:17.085Z,21.48
2023-03-20T19:45:55.984Z,20.08
2023-03-20T19:48:46.910Z,19.15
2023-03-20T19:51:10.185Z,19.65
2023-03-20T19:53:41.384Z,19.77
2023-03-20T19:56:15.490Z,19.40
2023-03-20T19:58:47.085Z,19.07
2023-03-20T20:01:25.528Z,19.60
2023-03-20T20:04:03.154Z,18.67
2023-03-20T20:06:39.759Z,20.70
2023-03-20T20:09:12.184Z,20.35
2023-03-20T20:11:44.484Z,19.25
2023-03-20T20:14:15.924Z,20.57
2023-03-20T20:16:48.507Z,20.03
2023-03-20T20:19:20.102Z,19.92
2023-03-20T20:24:38.394Z,19.95
2023-03-20T20:27:17.135Z,18.90
2023-03-20T20:29:49.474Z,19.42
2023-03-20T20:32:23.584Z,17.73
2023-03-20T20:38:28.239Z,17.05
2023-03-20T20:40:28.065Z,16.90
2023-03-20T20:43:11.026Z,17.20
2023-03-20T20:45:40.449Z,15.83
2023-03-20T20:48:12.761Z,17.13
2023-03-20T20:50:47.529Z,17.48
2023-03-20T20:53:18.749Z,15.70
2023-03-20T20:55:49.333Z,17.67
2023-03-20T20:58:20.277Z,18.70
2023-03-20T21:00:55.360Z,15.63
2023-03-20T21:03:29.708Z,13.78
2023-03-20T21:06:05.485Z,16.15
2023-03-20T21:08:36.773Z,15.20
2023-03-20T21:11:11.456Z,16.10
2023-03-20T21:13:45.540Z,14.80
2023-03-20T21:16:18.156Z,14.83
2023-03-20T21:18:50.281Z,15.60
2023-03-20T21:21:23.385Z,16.12
2023-03-20T21:23:55.823Z,14.15
2023-03-20T21:26:26.700Z,15.83
2023-03-20T21:28:57.533Z,14.00
2023-03-20T21:31:31.547Z,16.05
2023-03-20T21:34:03.914Z,15.08
2023-03-20T21:36:36.044Z,17.42
2023-03-20T21:39:09.588Z,13.95
2023-03-20T21:41:43.112Z,14.15
2023-03-20T21:44:21.852Z,13.80
2023-03-20T21:47:29.464Z,15.80
2023-03-20T21:50:23.155Z,15.18
2023-03-20T21:55:15.067Z,18.25
2023-03-20T22:00:31.821Z,19.57
2023-03-20T22:02:27.759Z,16.60
2023-03-20T22:08:03.355Z,16.20
2023-03-20T22:11:18.215Z,15.88
2023-03-20T22:13:35.163Z,18.15
2023-03-20T22:19:01.116Z,14.15
2023-03-20T22:21:29.565Z,14.25
2023-03-20T22:34:26.792Z,15.50
2023-03-20T22:36:54.131Z,12.97
2023-03-20T22:39:12.698Z,12.60
2023-03-20T22:46:45.267Z,12.10
2023-03-20T22:48:58.292Z,11.60
2023-03-20T22:51:36.842Z,13.38
2023-03-20T22:54:07.329Z,14.07
2023-03-20T22:56:40.560Z,13.70
2023-03-20T22:59:11.360Z,12.43
2023-03-20T23:01:43.220Z,11.88
2023-03-20T23:04:20.420Z,12.80
2023-03-20T23:07:11.770Z,12.98
2023-03-20T23:09:42.511Z,12.82
2023-03-20T23:12:17.064Z,12.25
2023-03-20T23:14:51.244Z,11.50
2023-03-20T23:17:23.684Z,12.00
2023-03-20T23:20:10.969Z,11.35
2023-03-20T23:22:35.185Z,12.20
2023-03-20T23:25:16.381Z,12.53
2023-03-20T23:27:44.153Z,13.40
2023-03-20T23:30:16.245Z,14.90
2023-03-20T23:32:47.635Z,12.70
2023-03-20T23:35:19.705Z,12.60
2023-03-20T23:37:56.511Z,17.57
2023-03-20T23:40:29.348Z,13.28
2023-03-20T23:43:05.666Z,12.75
2023-03-20T23:45:37.388Z,12.33
2023-03-20T23:48:11.003Z,11.50
2023-03-20T23:50:52.135Z,12.43
2023-03-20T23:53:20.593Z,12.43
2023-03-20T23:55:54.643Z,11.25
2023-03-20T23:58:27.492Z,11.60
